Time;durP1;ratioP1;P1;durP2;ratioP2;P2;SDS_P1;SDS_P2;PMS_P1;PMS_P2;Temp;Humidity;BMP_temperature;BMP_pressure;BME280_temperature;BME280_humidity;BME280_pressure;Samples;Min_cycle;Max_cycle;Signal;HPM_P1;HPM_P2
2021/01/19 00:01:27;;;;;;;30.87;15.90;;;0.80;99.90;;;;;;5037543;28;20047;-88
2021/01/19 00:03:53;;;;;;;32.03;17.07;;;0.70;99.90;;;;;;5037380;28;20025;-88
2021/01/19 00:06:18;;;;;;;30.47;16.30;;;0.70;99.90;;;;;;5055036;28;20033;-87
2021/01/19 00:08:44;;;;;;;28.63;16.03;;;0.70;99.90;;;;;;5054953;28;20044;-87
2021/01/19 00:11:10;;;;;;;35.47;17.30;;;0.70;99.90;;;;;;5055019;28;20037;-88
2021/01/19 00:13:35;;;;;;;37.63;18.60;;;0.70;99.90;;;;;;5054866;28;20025;-87
2021/01/19 00:16:01;;;;;;;34.30;17.43;;;0.60;99.90;;;;;;5037004;28;20017;-88
2021/01/19 00:18:26;;;;;;;35.57;19.30;;;0.60;99.90;;;;;;5054054;28;20025;-88
2021/01/19 00:20:52;;;;;;;35.37;17.83;;;0.60;99.90;;;;;;5036746;28;20041;-87
2021/01/19 00:23:18;;;;;;;33.63;17.33;;;0.60;99.90;;;;;;5036985;28;20395;-87
2021/01/19 00:25:44;;;;;;;39.07;18.10;;;0.60;99.90;;;;;;5054782;28;20020;-88
2021/01/19 00:28:10;;;;;;;31.40;17.30;;;0.60;99.90;;;;;;5036900;28;20074;-87
2021/01/19 00:30:43;;;;;;;35.87;18.40;;;0.60;99.90;;;;;;5036466;28;20036;-87
2021/01/19 00:33:09;;;;;;;34.70;17.73;;;0.60;99.90;;;;;;5054245;28;20037;-88
2021/01/19 00:35:36;;;;;;;34.93;18.97;;;0.60;99.90;;;;;;5053930;28;20031;-87
2021/01/19 00:38:02;;;;;;;34.23;19.33;;;0.60;99.90;;;;;;5071869;28;20044;-87
2021/01/19 00:40:29;;;;;;;32.93;17.13;;;0.60;99.90;;;;;;5066653;28;20020;-88
2021/01/19 00:42:55;;;;;;;37.10;18.20;;;0.60;99.90;;;;;;5073092;28;20123;-87
2021/01/19 00:45:20;;;;;;;36.40;18.83;;;0.60;99.90;;;;;;5055719;28;20079;-86
2021/01/19 00:47:46;;;;;;;37.93;19.17;;;0.60;99.90;;;;;;5067128;28;20032;-87
2021/01/19 00:50:12;;;;;;;39.83;18.93;;;0.50;99.90;;;;;;5071781;28;20174;-87
2021/01/19 00:52:38;;;;;;;35.57;18.60;;;0.60;99.90;;;;;;5061332;28;20029;-88
2021/01/19 00:55:13;;;;;;;38.03;19.17;;;0.60;99.90;;;;;;5053929;28;20025;-87
2021/01/19 00:57:39;;;;;;;37.90;20.07;;;0.60;99.90;;;;;;5039057;28;20017;-87
2021/01/19 01:00:07;;;;;;;41.63;20.97;;;0.60;99.90;;;;;;5063476;28;20021;-87
2021/01/19 01:02:36;;;;;;;39.17;20.17;;;0.70;99.90;;;;;;5040437;28;20025;-87
2021/01/19 01:05:04;;;;;;;35.70;19.70;;;0.70;99.90;;;;;;5035948;28;20116;-87
2021/01/19 01:07:35;;;;;;;41.70;21.47;;;0.70;99.90;;;;;;5063143;28;20474;-87
2021/01/19 01:10:02;;;;;;;42.25;20.85;;;0.70;99.90;;;;;;5072616;28;20482;-86
2021/01/19 01:12:28;;;;;;;42.87;21.80;;;0.60;99.90;;;;;;5073214;28;20123;-87
2021/01/19 01:14:53;;;;;;;43.63;22.13;;;0.60;99.90;;;;;;5073402;28;20518;-87
2021/01/19 01:17:19;;;;;;;44.47;23.33;;;0.60;99.90;;;;;;5063197;28;20025;-87
2021/01/19 01:19:45;;;;;;;45.77;23.83;;;0.60;99.90;;;;;;5068804;28;20033;-87
2021/01/19 01:22:11;;;;;;;42.63;22.80;;;0.60;99.90;;;;;;5041009;28;20033;-87
2021/01/19 01:24:36;;;;;;;41.67;22.07;;;0.60;99.90;;;;;;5049431;28;20035;-87
2021/01/19 01:27:02;;;;;;;45.07;23.30;;;0.60;99.90;;;;;;5067306;28;20132;-86
2021/01/19 01:29:28;;;;;;;54.20;27.20;;;0.60;99.90;;;;;;5049008;28;20505;-87
2021/01/19 01:31:53;;;;;;;48.33;25.00;;;0.60;99.90;;;;;;5072223;28;20031;-87
2021/01/19 01:34:19;;;;;;;53.53;27.07;;;0.60;99.90;;;;;;5053293;28;20025;-86
2021/01/19 01:36:46;;;;;;;50.40;26.27;;;0.60;99.90;;;;;;5051978;28;20037;-87
2021/01/19 01:39:12;;;;;;;51.77;27.23;;;0.60;99.90;;;;;;5052290;28;20028;-86
2021/01/19 01:41:37;;;;;;;52.20;27.70;;;0.60;99.90;;;;;;5052109;28;20022;-87
2021/01/19 01:44:03;;;;;;;50.63;25.97;;;0.60;99.90;;;;;;5051729;28;20027;-85
2021/01/19 01:46:31;;;;;;;57.23;28.53;;;0.60;99.90;;;;;;5070465;28;20021;-87
2021/01/19 01:48:57;;;;;;;53.43;28.00;;;0.60;99.90;;;;;;5071995;28;20025;-87
2021/01/19 01:51:24;;;;;;;55.23;28.10;;;0.60;99.90;;;;;;5073050;28;20025;-87
2021/01/19 01:53:51;;;;;;;55.53;27.80;;;0.60;99.90;;;;;;5071966;28;20024;-87
2021/01/19 01:56:18;;;;;;;54.23;26.77;;;0.50;99.90;;;;;;5071874;28;20028;-87
2021/01/19 01:58:45;;;;;;;50.23;26.63;;;0.50;99.90;;;;;;5071961;28;20055;-87
2021/01/19 02:01:10;;;;;;;53.90;28.07;;;0.50;99.90;;;;;;5071874;28;20025;-86
2021/01/19 02:03:36;;;;;;;54.87;27.97;;;0.50;99.90;;;;;;5071722;28;20470;-87
2021/01/19 02:06:02;;;;;;;53.03;27.43;;;0.50;99.90;;;;;;5071818;28;20020;-85
2021/01/19 02:08:37;;;;;;;51.97;27.83;;;0.50;99.90;;;;;;5071765;28;20051;-87
2021/01/19 02:11:21;;;;;;;55.37;28.03;;;0.50;99.90;;;;;;5072087;28;20371;-87
2021/01/19 02:13:52;;;;;;;48.80;26.93;;;0.60;99.90;;;;;;5071615;28;20036;-87
2021/01/19 02:16:36;;;;;;;49.42;26.65;;;0.60;99.90;;;;;;5071767;28;20104;-87
2021/01/19 02:19:20;;;;;;;54.10;27.73;;;0.60;99.90;;;;;;5072230;28;20044;-87
2021/01/19 02:22:09;;;;;;;54.23;28.60;;;0.60;99.90;;;;;;5056233;28;20029;-86
2021/01/19 02:24:38;;;;;;;53.23;28.20;;;0.50;99.90;;;;;;5052892;28;20052;-87
2021/01/19 02:27:32;;;;;;;56.30;27.50;;;0.50;99.90;;;;;;5035264;28;20514;-86
2021/01/19 02:30:42;;;;;;;47.60;26.33;;;0.50;99.90;;;;;;5053016;28;20098;-87
2021/01/19 02:33:34;;;;;;;54.90;28.07;;;0.50;99.90;;;;;;5034988;28;20029;-87
2021/01/19 02:36:14;;;;;;;53.65;25.92;;;0.50;99.90;;;;;;5056327;28;20017;-86
2021/01/19 02:38:56;;;;;;;54.83;27.17;;;0.50;99.90;;;;;;5052800;28;20025;-87
2021/01/19 02:41:23;;;;;;;59.03;27.73;;;0.50;99.90;;;;;;5055065;28;20032;-86
2021/01/19 02:43:57;;;;;;;58.57;29.37;;;0.50;99.90;;;;;;5038744;28;20479;-87
2021/01/19 02:46:26;;;;;;;56.43;27.67;;;0.50;99.90;;;;;;5056456;28;20025;-87
2021/01/19 02:48:53;;;;;;;51.93;27.13;;;0.50;99.90;;;;;;5043252;28;20025;-87
2021/01/19 02:51:20;;;;;;;53.27;27.47;;;0.50;99.90;;;;;;5064639;28;20033;-87
2021/01/19 02:53:51;;;;;;;52.90;28.83;;;0.50;99.90;;;;;;5038502;28;20033;-86
2021/01/19 02:56:31;;;;;;;45.75;25.90;;;0.50;99.90;;;;;;5059977;28;20493;-87
2021/01/19 02:59:22;;;;;;;55.63;27.83;;;0.50;99.90;;;;;;5069587;28;20471;-87
2021/01/19 03:02:00;;;;;;;50.43;27.53;;;0.50;99.90;;;;;;5038383;28;20029;-87
2021/01/19 03:04:30;;;;;;;57.70;29.20;;;0.50;99.90;;;;;;5047502;28;20032;-87
2021/01/19 03:07:01;;;;;;;55.47;28.53;;;0.50;99.90;;;;;;5053295;28;20035;-86
2021/01/19 03:09:28;;;;;;;56.92;28.40;;;0.50;99.90;;;;;;5057779;28;20537;-87
2021/01/19 03:11:55;;;;;;;52.33;27.50;;;0.50;99.90;;;;;;5075943;28;20107;-86
2021/01/19 03:14:21;;;;;;;52.10;28.03;;;0.50;99.90;;;;;;5057818;28;20028;-87
2021/01/19 03:16:48;;;;;;;56.67;28.93;;;0.50;99.90;;;;;;5075627;28;20021;-87
2021/01/19 03:19:16;;;;;;;56.37;28.33;;;0.50;99.90;;;;;;5053246;28;20032;-87
2021/01/19 03:21:42;;;;;;;64.20;29.97;;;0.50;99.90;;;;;;5067534;28;20385;-86
2021/01/19 03:24:08;;;;;;;59.03;29.80;;;0.50;99.90;;;;;;5057843;28;20028;-87
2021/01/19 03:26:33;;;;;;;55.53;28.57;;;0.50;99.90;;;;;;5038895;28;20116;-86
2021/01/19 03:28:59;;;;;;;57.90;29.90;;;0.50;99.90;;;;;;5055426;28;20108;-86
2021/01/19 03:31:25;;;;;;;52.70;28.53;;;0.40;99.90;;;;;;5037643;28;20091;-86
2021/01/19 03:33:50;;;;;;;54.37;29.33;;;0.40;99.90;;;;;;5037576;28;20076;-87
2021/01/19 03:36:16;;;;;;;57.43;29.93;;;0.40;99.90;;;;;;5037458;28;20052;-87
2021/01/19 03:38:42;;;;;;;59.37;30.73;;;0.50;99.90;;;;;;5073580;28;20124;-87
2021/01/19 03:41:07;;;;;;;64.13;31.40;;;0.40;99.90;;;;;;5057414;28;20019;-86
2021/01/19 03:43:33;;;;;;;63.30;30.87;;;0.40;99.90;;;;;;5057142;28;20470;-87
2021/01/19 03:45:58;;;;;;;64.23;31.97;;;0.40;99.90;;;;;;5057324;28;20028;-86
2021/01/19 03:48:24;;;;;;;56.43;30.90;;;0.40;99.90;;;;;;5075169;28;20028;-86
2021/01/19 03:50:50;;;;;;;63.37;31.80;;;0.40;99.90;;;;;;5075214;28;20082;-86
2021/01/19 03:53:15;;;;;;;63.37;32.13;;;0.40;99.90;;;;;;5055992;28;20081;-86
2021/01/19 03:55:41;;;;;;;61.63;31.90;;;0.40;99.90;;;;;;5057196;28;20028;-86
2021/01/19 03:58:07;;;;;;;62.33;32.97;;;0.40;99.90;;;;;;5074803;28;20020;-86
2021/01/19 04:00:32;;;;;;;68.83;33.70;;;0.40;99.90;;;;;;5074935;28;20090;-86
2021/01/19 04:02:58;;;;;;;61.50;32.73;;;0.30;99.90;;;;;;5057048;28;20028;-86
2021/01/19 04:05:24;;;;;;;59.70;33.40;;;0.30;99.90;;;;;;5057060;28;20060;-86
2021/01/19 04:07:50;;;;;;;65.47;31.00;;;0.40;99.90;;;;;;5074627;28;20035;-86
2021/01/19 04:10:15;;;;;;;59.83;31.57;;;0.30;99.90;;;;;;5056473;28;20040;-86
2021/01/19 04:12:42;;;;;;;60.37;31.63;;;0.40;99.90;;;;;;5074448;28;20035;-86
2021/01/19 04:15:09;;;;;;;63.53;31.43;;;0.30;99.90;;;;;;5053667;28;20029;-86
2021/01/19 04:17:35;;;;;;;62.13;32.40;;;0.30;99.90;;;;;;5050808;28;20492;-86
2021/01/19 04:20:02;;;;;;;59.73;31.67;;;0.30;99.90;;;;;;5073868;28;20052;-86
2021/01/19 04:22:28;;;;;;;56.30;29.80;;;0.30;99.90;;;;;;5074458;28;20108;-86
2021/01/19 04:24:53;;;;;;;56.40;30.77;;;0.30;99.90;;;;;;5054891;28;20210;-86
2021/01/19 04:27:20;;;;;;;61.07;31.73;;;0.20;99.90;;;;;;5074318;28;20077;-86
2021/01/19 04:29:45;;;;;;;68.03;32.37;;;0.30;99.90;;;;;;5055445;28;20079;-85
2021/01/19 04:32:12;;;;;;;62.13;31.93;;;0.30;99.90;;;;;;5055385;28;20033;-86
2021/01/19 04:34:38;;;;;;;56.67;31.43;;;0.30;99.90;;;;;;5045887;28;20041;-86
2021/01/19 04:37:03;;;;;;;59.03;30.10;;;0.30;99.90;;;;;;5063760;28;20165;-86
2021/01/19 04:39:29;;;;;;;61.07;30.50;;;0.30;99.90;;;;;;5049533;28;20025;-86
2021/01/19 04:41:55;;;;;;;62.33;30.63;;;0.30;99.90;;;;;;5036265;28;20029;-86
2021/01/19 04:44:22;;;;;;;59.87;31.27;;;0.20;99.90;;;;;;5036741;28;20061;-86
2021/01/19 04:46:49;;;;;;;58.47;30.70;;;0.30;99.90;;;;;;5069978;28;20020;-85
2021/01/19 04:49:17;;;;;;;58.27;29.67;;;0.30;99.90;;;;;;5055465;28;20524;-86
2021/01/19 04:51:46;;;;;;;56.23;28.80;;;0.30;99.90;;;;;;5055963;28;20023;-86
2021/01/19 04:54:16;;;;;;;56.73;30.63;;;0.20;99.90;;;;;;5050930;28;20083;-85
2021/01/19 04:56:51;;;;;;;58.67;30.70;;;0.30;99.90;;;;;;5036048;28;20379;-86
2021/01/19 04:59:22;;;;;;;58.33;30.47;;;0.20;99.90;;;;;;5035517;28;20044;-86
2021/01/19 05:02:14;;;;;;;60.08;30.70;;;0.20;99.90;;;;;;5053553;28;20029;-86
2021/01/19 05:04:52;;;;;;;54.70;29.15;;;0.20;99.90;;;;;;5035024;28;20040;-86
2021/01/19 05:07:31;;;;;;;58.80;31.60;;;0.10;99.90;;;;;;5035678;28;20044;-86
2021/01/19 05:10:05;;;;;;;54.27;30.73;;;0.20;99.90;;;;;;5042167;28;20055;-85
2021/01/19 05:12:37;;;;;;;53.07;27.70;;;0.10;99.90;;;;;;5055469;28;20039;-86
2021/01/19 05:15:03;;;;;;;57.88;29.10;;;0.10;99.90;;;;;;5062125;28;20028;-86
2021/01/19 05:17:30;;;;;;;54.10;29.57;;;0.10;99.90;;;;;;5045512;28;20036;-86
2021/01/19 05:19:56;;;;;;;52.80;27.20;;;0.00;99.90;;;;;;5070615;28;20017;-85
2021/01/19 05:22:22;;;;;;;50.53;27.30;;;0.10;99.90;;;;;;5055546;28;20029;-86
2021/01/19 05:24:48;;;;;;;55.23;28.50;;;0.10;99.90;;;;;;5055318;28;20025;-87
2021/01/19 05:27:14;;;;;;;52.93;26.53;;;0.10;99.90;;;;;;5055494;28;20021;-87
2021/01/19 05:29:40;;;;;;;55.23;27.50;;;0.10;99.90;;;;;;5073162;28;20020;-86
2021/01/19 05:32:05;;;;;;;53.30;28.37;;;0.10;99.90;;;;;;5068172;28;20025;-86
2021/01/19 05:34:36;;;;;;;52.27;27.73;;;0.20;99.90;;;;;;5053161;28;20116;-86
2021/01/19 05:37:02;;;;;;;45.03;25.47;;;0.10;99.90;;;;;;5035346;28;20045;-86
2021/01/19 05:39:28;;;;;;;48.20;24.93;;;0.20;99.90;;;;;;5035354;28;20052;-86
2021/01/19 05:41:55;;;;;;;55.27;27.80;;;0.10;99.90;;;;;;5035321;28;20479;-87
2021/01/19 05:44:32;;;;;;;48.23;26.17;;;0.10;99.90;;;;;;5053100;28;20083;-86
2021/01/19 05:46:59;;;;;;;54.43;26.27;;;0.10;99.90;;;;;;5035333;28;20368;-86
2021/01/19 05:49:43;;;;;;;49.80;26.10;;;0.10;99.90;;;;;;5035269;28;20056;-86
2021/01/19 05:52:13;;;;;;;52.23;26.60;;;0.10;99.90;;;;;;5053010;28;20033;-86
2021/01/19 05:54:43;;;;;;;50.00;27.17;;;0.00;99.90;;;;;;5035012;28;20029;-86
2021/01/19 05:57:21;;;;;;;47.97;25.83;;;0.00;99.90;;;;;;5052818;28;20017;-85
2021/01/19 05:59:51;;;;;;;45.20;24.70;;;0.00;99.90;;;;;;5035224;28;20032;-86
2021/01/19 06:02:19;;;;;;;51.07;27.17;;;0.00;99.90;;;;;;5035258;28;20055;-86
2021/01/19 06:04:52;;;;;;;54.30;26.60;;;0.00;99.90;;;;;;5052631;28;20070;-86
2021/01/19 06:07:23;;;;;;;48.50;26.90;;;0.00;99.90;;;;;;5047159;28;20033;-85
2021/01/19 06:09:50;;;;;;;52.70;27.23;;;-0.10;99.90;;;;;;5054534;28;20028;-86
2021/01/19 06:12:16;;;;;;;49.30;25.67;;;-0.10;99.90;;;;;;5072821;28;20111;-86
2021/01/19 06:14:52;;;;;;;42.73;22.80;;;-0.10;99.90;;;;;;5054284;28;20409;-86
2021/01/19 06:17:23;;;;;;;51.43;25.30;;;-0.10;99.90;;;;;;5076396;28;20162;-85
2021/01/19 06:19:53;;;;;;;46.57;24.50;;;0.00;99.90;;;;;;5057768;28;20463;-86
2021/01/19 06:22:23;;;;;;;48.57;24.53;;;-0.10;99.90;;;;;;5076403;28;20036;-85
2021/01/19 06:24:51;;;;;;;47.83;23.43;;;-0.10;99.90;;;;;;5051610;28;20029;-86
2021/01/19 06:27:20;;;;;;;47.17;24.27;;;-0.10;99.90;;;;;;5044192;28;20028;-87
2021/01/19 06:29:46;;;;;;;44.30;24.20;;;0.00;99.90;;;;;;5057935;28;20545;-86
2021/01/19 06:32:15;;;;;;;47.87;23.97;;;0.00;99.90;;;;;;5076508;28;20067;-86
2021/01/19 06:34:41;;;;;;;47.13;24.63;;;-0.10;99.90;;;;;;5057920;28;20039;-86
2021/01/19 06:37:08;;;;;;;49.57;24.63;;;0.00;99.90;;;;;;5075657;28;20079;-86
2021/01/19 06:39:38;;;;;;;48.00;24.67;;;-0.10;99.90;;;;;;5057616;28;20029;-86
2021/01/19 06:42:13;;;;;;;44.60;24.40;;;-0.10;99.90;;;;;;5054505;28;20029;-86
2021/01/19 06:45:02;;;;;;;42.83;23.87;;;-0.10;99.90;;;;;;5055515;28;20560;-86
2021/01/19 06:47:28;;;;;;;42.87;23.40;;;-0.10;99.90;;;;;;5055486;28;20060;-86
2021/01/19 06:49:54;;;;;;;49.10;25.43;;;-0.10;99.90;;;;;;5068298;28;20063;-85
2021/01/19 06:52:20;;;;;;;48.83;26.00;;;-0.10;99.90;;;;;;5055648;28;20037;-86
2021/01/19 06:54:52;;;;;;;52.40;25.60;;;0.00;99.90;;;;;;5067184;28;20039;-86
2021/01/19 06:57:45;;;;;;;52.25;26.38;;;0.00;99.90;;;;;;5061173;28;20027;-85
2021/01/19 07:00:18;;;;;;;42.87;25.27;;;0.00;99.90;;;;;;5057013;28;20025;-86
2021/01/19 07:02:48;;;;;;;43.93;24.80;;;0.10;99.90;;;;;;5038217;28;20021;-86
2021/01/19 07:05:20;;;;;;;46.23;23.13;;;0.10;99.90;;;;;;5062193;28;20032;-85
2021/01/19 07:07:47;;;;;;;42.05;21.35;;;0.10;99.90;;;;;;5068737;28;20051;-86
2021/01/19 07:10:15;;;;;;;39.73;22.77;;;0.20;99.90;;;;;;5062001;28;20033;-86
2021/01/19 07:13:06;;;;;;;47.37;24.73;;;0.10;99.90;;;;;;5055748;28;20100;-86
2021/01/19 07:15:56;;;;;;;47.87;23.27;;;0.10;99.90;;;;;;5058632;28;20036;-86
2021/01/19 07:18:27;;;;;;;46.10;24.47;;;0.10;99.90;;;;;;5059434;28;20392;-86
2021/01/19 07:21:05;;;;;;;46.38;25.73;;;0.10;99.90;;;;;;5074517;28;20025;-86
2021/01/19 07:23:45;;;;;;;45.73;25.03;;;0.10;99.90;;;;;;5074334;28;20028;-87
2021/01/19 07:26:21;;;;;;;49.50;25.43;;;0.10;99.90;;;;;;5069801;28;20041;-86
2021/01/19 07:28:48;;;;;;;51.97;25.27;;;0.00;99.90;;;;;;5055611;28;20035;-86
2021/01/19 07:31:16;;;;;;;54.90;25.67;;;0.10;99.90;;;;;;5054089;28;20043;-86
2021/01/19 07:33:49;;;;;;;49.20;23.80;;;0.10;99.90;;;;;;5055281;28;20036;-87
2021/01/19 07:36:20;;;;;;;52.47;23.93;;;0.10;99.90;;;;;;5054127;28;20052;-87
2021/01/19 07:38:46;;;;;;;46.45;24.95;;;0.10;99.90;;;;;;5054250;28;20561;-86
2021/01/19 07:41:25;;;;;;;53.97;27.73;;;0.10;99.90;;;;;;5054157;28;20075;-87
2021/01/19 07:43:52;;;;;;;63.43;29.50;;;0.10;99.90;;;;;;5054261;28;20112;-87
2021/01/19 07:46:27;;;;;;;57.80;29.33;;;0.10;99.90;;;;;;5053935;28;20024;-87
2021/01/19 07:49:04;;;;;;;63.57;29.30;;;0.10;99.90;;;;;;5054000;28;20090;-87
2021/01/19 07:51:50;;;;;;;65.13;29.43;;;0.10;99.90;;;;;;5055410;28;20119;-87
2021/01/19 07:54:22;;;;;;;66.47;29.17;;;0.10;99.90;;;;;;5053893;28;20132;-88
2021/01/19 07:56:47;;;;;;;50.25;25.55;;;0.20;99.90;;;;;;5074866;28;20162;-78
2021/01/19 07:59:16;;;;;;;49.90;23.47;;;0.20;99.90;;;;;;5059757;28;20496;-77
2021/01/19 08:01:52;;;;;;;50.03;23.80;;;0.20;99.90;;;;;;5059932;28;20112;-78
2021/01/19 08:04:33;;;;;;;57.67;26.03;;;0.20;99.90;;;;;;5070617;28;20028;-78
2021/01/19 08:07:13;;;;;;;49.77;23.83;;;0.30;99.90;;;;;;5070537;28;20032;-78
2021/01/19 08:09:39;;;;;;;46.53;24.47;;;0.30;99.90;;;;;;5060406;28;20083;-78
2021/01/19 08:12:11;;;;;;;53.40;25.17;;;0.30;99.90;;;;;;5068096;28;20725;-78
2021/01/19 08:14:41;;;;;;;54.17;24.50;;;0.30;99.90;;;;;;5071125;28;20027;-78
2021/01/19 08:17:08;;;;;;;56.73;25.23;;;0.30;99.90;;;;;;5068230;28;20050;-78
2021/01/19 08:19:41;;;;;;;51.90;24.40;;;0.40;99.90;;;;;;5069753;28;20612;-78
2021/01/19 08:22:08;;;;;;;52.60;25.07;;;0.40;99.90;;;;;;5069901;28;20021;-77
2021/01/19 08:24:33;;;;;;;50.27;24.87;;;0.40;99.90;;;;;;5069332;28;20047;-78
2021/01/19 08:27:00;;;;;;;53.90;27.13;;;0.50;99.90;;;;;;5064656;28;20662;-78
2021/01/19 08:29:26;;;;;;;58.10;28.73;;;0.50;99.90;;;;;;5061579;28;20500;-78
2021/01/19 08:31:54;;;;;;;68.27;33.37;;;0.60;99.90;;;;;;5070909;28;20016;-77
2021/01/19 08:34:21;;;;;;;64.50;33.77;;;0.60;99.90;;;;;;5050864;28;20033;-77
2021/01/19 08:36:47;;;;;;;81.07;36.57;;;0.60;99.90;;;;;;5050982;28;20044;-77
2021/01/19 08:39:15;;;;;;;74.70;36.97;;;0.60;99.90;;;;;;5059608;28;20130;-77
2021/01/19 08:41:49;;;;;;;82.27;40.23;;;0.60;99.90;;;;;;5050723;28;20017;-77
2021/01/19 08:44:16;;;;;;;96.03;41.60;;;0.70;99.90;;;;;;5051250;28;20808;-77
2021/01/19 08:46:42;;;;;;;80.67;39.40;;;0.80;99.90;;;;;;5037547;28;20437;-85
2021/01/19 08:49:13;;;;;;;76.87;37.93;;;0.90;99.90;;;;;;5053208;28;20103;-85
2021/01/19 08:51:47;;;;;;;81.07;37.47;;;0.90;99.90;;;;;;5053790;28;20025;-85
2021/01/19 08:54:13;;;;;;;65.27;32.73;;;1.00;99.90;;;;;;5053274;28;20048;-87
2021/01/19 08:56:41;;;;;;;66.50;34.63;;;1.10;99.90;;;;;;5034969;28;20024;-86
2021/01/19 08:59:10;;;;;;;82.03;37.97;;;1.10;99.90;;;;;;5053598;28;20385;-86
2021/01/19 09:01:52;;;;;;;102.03;47.70;;;1.20;99.90;;;;;;5071802;28;20029;-87
2021/01/19 09:04:23;;;;;;;93.93;45.87;;;1.20;99.90;;;;;;5033995;28;20071;-86
2021/01/19 09:06:50;;;;;;;119.33;55.70;;;1.30;99.90;;;;;;5039352;28;20029;-86
2021/01/19 09:09:20;;;;;;;136.93;64.03;;;1.30;99.90;;;;;;5055924;28;20524;-86
2021/01/19 09:11:46;;;;;;;161.53;76.53;;;1.40;99.90;;;;;;5073353;28;20111;-77
2021/01/19 09:14:12;;;;;;;223.77;101.40;;;1.40;99.90;;;;;;5042777;28;20116;-78
2021/01/19 09:16:39;;;;;;;241.90;107.93;;;1.50;99.90;;;;;;5035235;28;20021;-78
2021/01/19 09:19:10;;;;;;;249.27;110.23;;;1.50;99.90;;;;;;5035450;28;20037;-77
2021/01/19 09:21:38;;;;;;;183.73;84.40;;;1.50;99.90;;;;;;5037010;28;20021;-78
2021/01/19 09:24:11;;;;;;;167.47;79.60;;;1.50;99.90;;;;;;5053750;28;20036;-77
2021/01/19 09:26:46;;;;;;;136.20;65.17;;;1.60;99.90;;;;;;5042996;28;20032;-78
2021/01/19 09:29:15;;;;;;;128.30;57.73;;;1.60;99.90;;;;;;5041124;28;20037;-87
2021/01/19 09:31:41;;;;;;;108.97;51.80;;;1.60;99.90;;;;;;5039918;28;20047;-88
2021/01/19 09:34:11;;;;;;;92.37;45.77;;;1.70;99.90;;;;;;5045864;28;20025;-87
2021/01/19 09:36:37;;;;;;;96.53;45.73;;;1.80;99.90;;;;;;5070890;28;20072;-86
2021/01/19 09:39:03;;;;;;;89.10;44.17;;;1.80;99.90;;;;;;5053710;28;20097;-86
2021/01/19 09:41:29;;;;;;;83.67;42.93;;;1.80;99.90;;;;;;5070948;28;20020;-86
2021/01/19 09:43:56;;;;;;;95.33;44.83;;;1.90;99.90;;;;;;5071446;28;20115;-84
2021/01/19 09:46:24;;;;;;;96.67;48.30;;;1.90;99.90;;;;;;5049139;28;20032;-83
2021/01/19 09:48:54;;;;;;;100.47;48.00;;;1.90;99.90;;;;;;5051917;28;20028;-84
2021/01/19 09:51:27;;;;;;;107.53;52.10;;;1.90;99.90;;;;;;5034941;28;20078;-83
2021/01/19 09:54:00;;;;;;;108.97;55.53;;;2.00;99.90;;;;;;5056897;28;20025;-86
2021/01/19 09:56:27;;;;;;;112.57;55.77;;;2.10;99.90;;;;;;5054896;28;20027;-86
2021/01/19 09:59:07;;;;;;;114.93;57.80;;;2.10;99.90;;;;;;5055161;28;20020;-78
2021/01/19 10:01:33;;;;;;;52.83;28.57;;;2.10;99.90;;;;;;5055071;28;20031;-78
2021/01/19 10:04:01;;;;;;;135.67;64.93;;;2.60;99.90;;;;;;5069121;28;20352;-80
2021/01/19 10:06:28;;;;;;;127.20;60.37;;;2.80;99.90;;;;;;5088221;28;20043;-80
2021/01/19 10:08:54;;;;;;;109.80;53.67;;;2.70;99.90;;;;;;5054666;28;20029;-80
2021/01/19 10:11:33;;;;;;;108.50;54.30;;;2.70;99.90;;;;;;5054631;28;20028;-80
2021/01/19 10:14:12;;;;;;;117.70;56.60;;;2.70;99.90;;;;;;5054926;28;20028;-78
2021/01/19 10:16:48;;;;;;;108.93;56.20;;;2.60;99.90;;;;;;5092056;28;20474;-79
2021/01/19 10:19:28;;;;;;;134.40;64.73;;;2.60;99.90;;;;;;5074535;28;20047;-79
2021/01/19 10:21:59;;;;;;;143.30;67.33;;;2.70;99.90;;;;;;5074637;28;20021;-78
2021/01/19 10:24:25;;;;;;;124.53;63.23;;;2.70;99.90;;;;;;5092725;28;20034;-79
2021/01/19 10:27:10;;;;;;;123.00;63.83;;;2.80;99.90;;;;;;5091990;28;20056;-79
2021/01/19 10:29:42;;;;;;;136.60;69.00;;;2.80;99.90;;;;;;5072027;28;20028;-79
2021/01/19 10:32:11;;;;;;;137.25;72.32;;;2.80;99.90;;;;;;5092202;28;20430;-79
2021/01/19 10:34:38;;;;;;;146.83;75.37;;;2.90;99.90;;;;;;5092548;28;20024;-79
2021/01/19 10:37:04;;;;;;;153.53;78.03;;;2.90;99.90;;;;;;5074232;28;20094;-78
2021/01/19 10:39:30;;;;;;;160.43;79.17;;;3.00;99.90;;;;;;5074401;28;20382;-79
2021/01/19 10:41:58;;;;;;;156.37;79.07;;;3.00;99.90;;;;;;5053713;28;20036;-79
2021/01/19 10:44:25;;;;;;;152.90;76.30;;;3.00;99.90;;;;;;5046268;28;20040;-79
2021/01/19 10:46:59;;;;;;;152.87;75.50;;;3.00;99.90;;;;;;5049552;28;20033;-78
2021/01/19 10:49:29;;;;;;;160.87;81.73;;;3.00;99.90;;;;;;5031950;28;20422;-80
2021/01/19 10:51:56;;;;;;;168.70;78.63;;;3.10;99.90;;;;;;5053035;28;20044;-80
2021/01/19 10:54:24;;;;;;;159.50;76.23;;;3.10;99.90;;;;;;5031769;28;20076;-81
2021/01/19 10:57:04;;;;;;;148.40;76.17;;;3.20;99.90;;;;;;5033616;28;20116;-78
2021/01/19 10:59:30;;;;;;;152.53;74.67;;;3.20;99.90;;;;;;5040162;28;20051;-79
2021/01/19 11:01:56;;;;;;;142.27;71.73;;;3.20;99.90;;;;;;5049318;28;20390;-79
2021/01/19 11:04:22;;;;;;;140.83;69.37;;;3.30;99.90;;;;;;5052409;28;20032;-80
2021/01/19 11:06:47;;;;;;;133.70;69.03;;;3.30;99.90;;;;;;5063922;28;20025;-80
2021/01/19 11:09:14;;;;;;;133.90;66.03;;;3.30;99.90;;;;;;5068739;28;20033;-80
2021/01/19 11:11:40;;;;;;;131.40;64.07;;;3.30;99.90;;;;;;5056851;28;20032;-80
2021/01/19 11:14:07;;;;;;;130.70;66.17;;;3.40;99.90;;;;;;5070946;28;20430;-80
2021/01/19 11:16:40;;;;;;;126.50;64.93;;;3.40;99.90;;;;;;5075041;28;20025;-80
2021/01/19 11:19:08;;;;;;;121.67;63.67;;;3.50;99.90;;;;;;5053113;28;20025;-80
2021/01/19 11:21:35;;;;;;;137.90;70.37;;;3.50;99.90;;;;;;5048128;28;20099;-80
2021/01/19 11:24:02;;;;;;;140.17;71.07;;;3.60;99.90;;;;;;5067883;28;20077;-79
2021/01/19 11:26:28;;;;;;;129.10;66.73;;;3.60;99.90;;;;;;5074038;28;20028;-79
2021/01/19 11:28:55;;;;;;;142.17;69.93;;;3.70;99.90;;;;;;5073746;28;20024;-80
2021/01/19 11:31:29;;;;;;;134.73;68.90;;;3.70;99.90;;;;;;5075037;28;20474;-80
2021/01/19 11:33:56;;;;;;;134.43;69.67;;;3.80;99.90;;;;;;5074998;28;20477;-80
2021/01/19 11:36:29;;;;;;;131.23;67.10;;;3.90;99.90;;;;;;5081518;28;20048;-80
2021/01/19 11:38:58;;;;;;;126.37;63.80;;;3.90;99.90;;;;;;5072374;28;20016;-80
2021/01/19 11:41:26;;;;;;;138.80;72.27;;;4.00;99.90;;;;;;5071394;28;20474;-80
2021/01/19 11:43:52;;;;;;;135.37;68.40;;;4.00;99.90;;;;;;5036891;28;20029;-80
2021/01/19 11:46:24;;;;;;;124.57;65.73;;;4.00;99.90;;;;;;5037081;28;20032;-80
2021/01/19 11:48:51;;;;;;;124.43;64.35;;;4.00;99.90;;;;;;5046756;28;20029;-80
2021/01/19 11:51:31;;;;;;;128.80;67.40;;;4.00;99.90;;;;;;5074026;28;20428;-80
2021/01/19 11:53:59;;;;;;;123.43;62.27;;;4.00;99.90;;;;;;5056626;28;20085;-81
2021/01/19 11:56:39;;;;;;;116.77;64.37;;;4.00;99.90;;;;;;5045610;28;20488;-80
2021/01/19 11:59:07;;;;;;;122.57;65.00;;;4.00;99.90;;;;;;5063383;28;20028;-80
2021/01/19 12:01:32;;;;;;;108.97;59.93;;;4.10;99.90;;;;;;5074603;28;20036;-80
2021/01/19 12:03:58;;;;;;;117.33;57.80;;;4.10;99.90;;;;;;5044683;28;20029;-80
2021/01/19 12:06:24;;;;;;;123.83;62.10;;;4.20;99.90;;;;;;5036500;28;20483;-80
2021/01/19 12:08:51;;;;;;;122.23;62.83;;;4.30;99.90;;;;;;5036747;28;20040;-80
2021/01/19 12:11:17;;;;;;;124.50;63.27;;;4.40;99.90;;;;;;5036779;28;20437;-80
2021/01/19 12:13:44;;;;;;;127.37;63.10;;;4.40;99.90;;;;;;5038740;28;20166;-80
2021/01/19 12:16:11;;;;;;;135.63;64.93;;;4.40;99.90;;;;;;5068686;28;20060;-80
2021/01/19 12:18:37;;;;;;;122.40;62.40;;;4.50;99.90;;;;;;5074079;28;20032;-80
2021/01/19 12:21:05;;;;;;;118.47;62.10;;;4.50;99.90;;;;;;5074481;28;20099;-80
2021/01/19 12:23:31;;;;;;;122.13;63.90;;;4.50;99.90;;;;;;5041872;28;20124;-80
2021/01/19 12:25:58;;;;;;;125.37;64.80;;;4.50;99.90;;;;;;5055219;28;20111;-80
2021/01/19 12:28:25;;;;;;;124.67;65.07;;;4.60;99.90;;;;;;5051262;28;20036;-81
2021/01/19 12:30:52;;;;;;;134.77;68.17;;;4.60;99.90;;;;;;5060644;28;20033;-80
2021/01/19 12:33:20;;;;;;;127.38;66.22;;;4.60;99.90;;;;;;5038001;28;20024;-80
2021/01/19 12:35:47;;;;;;;123.28;64.90;;;4.60;99.90;;;;;;5073430;28;20032;-80
2021/01/19 12:38:13;;;;;;;131.23;64.88;;;4.60;99.90;;;;;;5073572;28;20047;-80
2021/01/19 12:40:38;;;;;;;124.07;64.43;;;4.60;99.90;;;;;;5055481;28;20111;-80
2021/01/19 12:43:04;;;;;;;132.97;70.20;;;4.60;99.90;;;;;;5055869;28;20024;-80
2021/01/19 12:45:29;;;;;;;128.10;66.50;;;4.60;99.90;;;;;;5042396;28;20035;-80